Port Hardy, Canada
Current Conditions -  °F | °C
As of 2:00 PM on Monday 22 Dec 2014 (Local Time) from CYZT Reporting Station
Overcast Overcast  
Wind Chill: 39°   Ceiling: 15000
Heat Index: 43°   Visibility: 20mi
Dew Point: 41°   Wind: 6mph
Humidity: 93%   Direction: 120°ESE
Pressure: 30.32"   Gusts: NA
Location:  50.72°N, 127.5°W
Report Text: CYZT 222200Z 12005KT 20SM FEW012 OVC150 06/05 A3032 RMK SF1AS8 SF TR SLP267
Loading
Personal Weather Stations






























Interactive Weather Map New forecast layout! Learn more

10-Day Weather Forecast

Advertisements
Track Severe Weather on mobile